Home > Products > Valid Products > TAF

000
FTUS41 KPHI 300521
TAFRDG
TAF
KRDG 300521Z 3006/3106 19008KT P6SM BKN100
     FM300800 20010KT P6SM VCSH OVC050
     FM301300 23010G18KT P6SM BKN040
     FM301600 28014G24KT P6SM SCT040 BKN100
     FM302000 29016G26KT P6SM SCT050
     FM302300 28010KT P6SM SCT050=



000
FTUS41 KPHI 300521
TAFABE
TAF
KABE 300521Z 3006/3106 20008KT P6SM BKN100
     FM300800 21010KT P6SM VCSH OVC050
     FM301300 24010G18KT P6SM BKN040
     FM301600 27014G24KT P6SM SCT040 BKN100
     FM302000 29014G24KT P6SM SCT050
     FM302300 28008KT P6SM SCT050=



000
FTUS41 KPHI 300521
TAFILG
TAF
KILG 300521Z 3006/3106 19008KT P6SM BKN100
     FM300900 20012KT P6SM VCSH OVC050
     FM301400 24012G22KT P6SM BKN050
     FM301700 27015G25KT P6SM SCT050 BKN150
     FM302000 30018G28KT P6SM SCT050
     FM310000 28010KT P6SM FEW050=



000
FTUS41 KPHI 300521
TAFTTN
TAF
KTTN 300521Z 3006/3106 21008KT P6SM BKN100
     FM300900 21010KT P6SM VCSH OVC050
     FM301400 24012G20KT P6SM BKN050
     FM301700 27014G24KT P6SM SCT050 BKN150
     FM302000 30014G24KT P6SM SCT050
     FM310000 30010KT P6SM FEW050=



000
FTUS41 KPHI 300521
TAFACY
TAF
KACY 300521Z 3006/3106 20006KT P6SM BKN100
     FM301000 21012KT P6SM VCSH OVC060
     FM301500 24012G22KT P6SM BKN050
     FM301800 27015G25KT P6SM SCT050 BKN150
     FM302100 29015G25KT P6SM SCT050
     FM302300 29008KT P6SM FEW050=



000
FTUS41 KPHI 300521
TAFPHL
TAF
KPHL 300521Z 3006/3112 20008KT P6SM BKN100
     FM300900 21012KT P6SM VCSH OVC050
     FM301400 24012G22KT P6SM BKN050
     FM301700 27015G25KT P6SM SCT050 BKN150
     FM302000 30018G28KT P6SM SCT050
     FM310000 28012KT P6SM FEW050=



000
FTUS41 KPHI 300521
TAFPNE
TAF
KPNE 300521Z 3006/3106 20008KT P6SM BKN100
     FM300900 21010KT P6SM VCSH OVC050
     FM301400 24012G22KT P6SM BKN050
     FM301700 27015G25KT P6SM SCT050 BKN150
     FM302000 30018G28KT P6SM SCT050
     FM310000 28012KT P6SM FEW050=



000
FTUS41 KPHI 300521
TAFMIV
TAF
KMIV 300521Z 3006/3106 20005KT P6SM BKN100
     FM301000 22010KT P6SM VCSH OVC060
     FM301500 25012G22KT P6SM BKN050
     FM301800 28014G24KT P6SM SCT050 BKN150
     FM302100 29014G24KT P6SM SCT050
     FM302300 29008KT P6SM FEW050=



000
FTUS41 KPHI 300142 AAA
TAFRDG
TAF AMD
KRDG 300142Z 3002/3024 18005KT P6SM SCT250
     FM300300 17004KT P6SM BKN150
     FM300800 21008KT P6SM -RASN FEW025 BKN040
     FM301500 27012G20KT P6SM BKN040
     FM302100 29015G25KT P6SM BKN100=



000
FTUS41 KPHI 300142 AAA
TAFRDG
TAF AMD
KRDG 300142Z 3002/3024 18005KT P6SM SCT250
     FM300300 17004KT P6SM BKN150
     FM300800 21008KT P6SM -RASN FEW025 BKN040
     FM301500 27012G20KT P6SM BKN040
     FM302100 29015G25KT P6SM BKN100=



000
FTUS41 KPHI 292332
TAFPNE
TAF
KPNE 292332Z 3000/3024 23007KT P6SM SCT250
     FM300400 20005KT P6SM BKN150
     FM300900 22010KT P6SM -RA BKN050
     FM301500 26012G20KT P6SM FEW025 BKN050
     FM302100 29015G25KT P6SM SCT100=



000
FTUS41 KPHI 292332
TAFPHL
TAF
KPHL 292332Z 3000/3106 23008KT P6SM SCT250
     FM300400 20008KT P6SM BKN150
     FM300900 21010KT P6SM -RA BKN050
     FM301400 25012G22KT P6SM FEW030 BKN050
     FM301800 27014G24KT P6SM SCT050
     FM302100 29018G26KT P6SM SCT100=



000
FTUS41 KPHI 292332
TAFTTN
TAF
KTTN 292332Z 3000/3024 23008KT P6SM SCT250
     FM300400 20005KT P6SM BKN150
     FM300900 21010KT P6SM -RASN BKN050
     FM301500 26012G20KT P6SM FEW025 BKN050
     FM302100 30015G25KT P6SM SCT100=



000
FTUS41 KPHI 292332
TAFABE
TAF
KABE 292332Z 3000/3024 22008KT P6SM SCT250
     FM300300 20005KT P6SM BKN150
     FM300800 21008KT P6SM -RASN FEW025 BKN040
     FM301500 27012G20KT P6SM BKN040
     FM302100 28015G25KT P6SM BKN100=



000
FTUS41 KPHI 292332
TAFRDG
TAF
KRDG 292332Z 3000/3024 22005KT P6SM SCT250
     FM300300 18005KT P6SM BKN150
     FM300800 21008KT P6SM -RASN FEW025 BKN040
     FM301500 27012G20KT P6SM BKN040
     FM302100 29015G25KT P6SM BKN100=



000
FTUS41 KPHI 292332
TAFACY
TAF
KACY 292332Z 3000/3024 24006KT P6SM SCT250
     FM300400 19005KT P6SM BKN200
     FM300900 22010KT P6SM -RA BKN050
     FM301400 26012G20KT P6SM SCT030 BKN050
     FM302100 29014G24KT P6SM SCT050=



000
FTUS41 KPHI 292332
TAFILG
TAF
KILG 292332Z 3000/3024 22007KT P6SM SCT250
     FM300400 19008KT P6SM BKN150
     FM300900 21010KT P6SM -RA BKN050
     FM301400 25012G22KT P6SM FEW030 BKN050
     FM301800 27014G24KT P6SM SCT050
     FM302100 29018G26KT P6SM SCT100=



000
FTUS41 KPHI 292332
TAFMIV
TAF
KMIV 292332Z 3000/3024 24008KT P6SM SCT250
     FM300400 19005KT P6SM BKN200
     FM301000 21008KT P6SM -RA BKN100
     FM301400 26012G20KT P6SM SCT030 BKN050
     FM302100 29013G22KT P6SM SCT050=



000
FTUS41 KPHI 292104 AAA
TAFPHL
TAF AMD
KPHL 292104Z 2921/3024 25008KT P6SM SKC
     FM300000 21006KT P6SM SCT250
     FM300400 20008KT P6SM BKN150
     FM300900 21010KT P6SM BKN050
     FM301400 25012G22KT P6SM FEW030 BKN050
     FM301800 27014G26KT P6SM SCT050=



000
FTUS41 KPHI 292104 AAA
TAFPHL
TAF AMD
KPHL 292104Z 2921/3024 25008KT P6SM SKC
     FM300000 21006KT P6SM SCT250
     FM300400 20008KT P6SM BKN150
     FM300900 21010KT P6SM BKN050
     FM301400 25012G22KT P6SM FEW030 BKN050
     FM301800 27014G26KT P6SM SCT050=



000
FTUS41 KPHI 291740
TAFPHL
TAF
KPHL 291740Z 2918/3024 30008KT P6SM SKC
     FM300000 20005KT P6SM SCT250
     FM300400 20008KT P6SM BKN150
     FM300900 21010KT P6SM BKN050
     FM301400 25012G22KT P6SM FEW030 BKN050
     FM301800 27014G26KT P6SM SCT050=



000
FTUS41 KPHI 291740
TAFPNE
TAF
KPNE 291740Z 2918/3018 28008KT P6SM SKC
     FM300000 22005KT P6SM SCT250
     FM300400 20005KT P6SM BKN150
     FM300900 22010KT P6SM BKN050
     FM301500 26012G20KT P6SM FEW025 BKN050=



000
FTUS41 KPHI 291740
TAFACY
TAF
KACY 291740Z 2918/3018 32010KT P6SM SKC
     FM292000 27008KT P6SM SKC
     FM300000 VRB03KT P6SM SCT250
     FM300400 19005KT P6SM BKN200
     FM300900 22010KT P6SM BKN050
     FM301400 26012G20KT P6SM SCT030 BKN050=



000
FTUS41 KPHI 291740
TAFTTN
TAF
KTTN 291740Z 2918/3018 31008KT P6SM SKC
     FM300000 22005KT P6SM SCT250
     FM300400 20005KT P6SM BKN150
     FM300900 21010KT P6SM BKN050
     FM301500 26012G20KT P6SM FEW025 BKN050=



000
FTUS41 KPHI 291740
TAFMIV
TAF
KMIV 291740Z 2918/3018 32010KT P6SM SKC
     FM292000 27008KT P6SM SKC
     FM292300 VRB03KT P6SM SCT250
     FM300400 19005KT P6SM BKN200
     FM301000 21008KT P6SM BKN100
     FM301400 26012G20KT P6SM SCT030 BKN050=



000
FTUS41 KPHI 291740
TAFRDG
TAF
KRDG 291740Z 2918/3018 28008KT P6SM SKC
     FM300000 20005KT P6SM SCT250
     FM300300 18005KT P6SM BKN150
     FM300800 21008KT P6SM FEW025 BKN040
     FM301500 27012G20KT P6SM BKN040=



000
FTUS41 KPHI 291740
TAFABE
TAF
KABE 291740Z 2918/3018 28008KT P6SM SKC
     FM300000 22005KT P6SM SCT250
     FM300300 20005KT P6SM BKN150
     FM300800 21008KT P6SM FEW025 BKN040
     FM301500 27012G20KT P6SM BKN040=



000
FTUS41 KPHI 291740
TAFILG
TAF
KILG 291740Z 2918/3018 32010KT P6SM SKC
     FM300000 20005KT P6SM SCT250
     FM300400 19008KT P6SM BKN150
     FM300900 21010KT P6SM BKN050
     FM301400 25012G22KT P6SM FEW030 BKN050=



000
FTUS41 KPHI 291740
TAFTTN
TAF
KTTN 291740Z 2918/3018 31008KT P6SM SKC
     FM300000 22005KT P6SM SCT250
     FM300400 20005KT P6SM BKN150
     FM300900 21010KT P6SM BKN050
     FM301500 26012G20KT P6SM FEW025 BKN050=



000
FTUS41 KPHI 291740
TAFPNE
TAF
KPNE 291740Z 2918/3018 28008KT P6SM SKC
     FM300000 22005KT P6SM SCT250
     FM300400 20005KT P6SM BKN150
     FM300900 22010KT P6SM BKN050
     FM301500 26012G20KT P6SM FEW025 BKN050=



000
FTUS41 KPHI 291740
TAFPHL
TAF
KPHL 291740Z 2918/3024 30008KT P6SM SKC
     FM300000 20005KT P6SM SCT250
     FM300400 20008KT P6SM BKN150
     FM300900 21010KT P6SM BKN050
     FM301400 25012G22KT P6SM FEW030 BKN050
     FM301800 27014G26KT P6SM SCT050=



000
FTUS41 KPHI 291740
TAFMIV
TAF
KMIV 291740Z 2918/3018 32010KT P6SM SKC
     FM292000 27008KT P6SM SKC
     FM292300 VRB03KT P6SM SCT250
     FM300400 19005KT P6SM BKN200
     FM301000 21008KT P6SM BKN100
     FM301400 26012G20KT P6SM SCT030 BKN050=



000
FTUS41 KPHI 291740
TAFACY
TAF
KACY 291740Z 2918/3018 32010KT P6SM SKC
     FM292000 27008KT P6SM SKC
     FM300000 VRB03KT P6SM SCT250
     FM300400 19005KT P6SM BKN200
     FM300900 22010KT P6SM BKN050
     FM301400 26012G20KT P6SM SCT030 BKN050=



000
FTUS41 KPHI 291740
TAFRDG
TAF
KRDG 291740Z 2918/3018 28008KT P6SM SKC
     FM300000 20005KT P6SM SCT250
     FM300300 18005KT P6SM BKN150
     FM300800 21008KT P6SM FEW025 BKN040
     FM301500 27012G20KT P6SM BKN040=



000
FTUS41 KPHI 291740
TAFABE
TAF
KABE 291740Z 2918/3018 28008KT P6SM SKC
     FM300000 22005KT P6SM SCT250
     FM300300 20005KT P6SM BKN150
     FM300800 21008KT P6SM FEW025 BKN040
     FM301500 27012G20KT P6SM BKN040=



000
FTUS41 KPHI 291740
TAFILG
TAF
KILG 291740Z 2918/3018 32010KT P6SM SKC
     FM300000 20005KT P6SM SCT250
     FM300400 19008KT P6SM BKN150
     FM300900 21010KT P6SM BKN050
     FM301400 25012G22KT P6SM FEW030 BKN050=



000
FTUS41 KPHI 291458 AAA
TAFPHL
TAF AMD
KPHL 291458Z 2915/3018 34012KT P6SM SKC
     FM292000 26008KT P6SM SKC
     FM300000 20005KT P6SM SCT250
     FM300400 20008KT P6SM BKN150
     FM300900 21010KT P6SM BKN050
     FM301400 26012G22KT P6SM SCT050=



000
FTUS41 KPHI 291458 AAA
TAFPHL
TAF AMD
KPHL 291458Z 2915/3018 34012KT P6SM SKC
     FM292000 26008KT P6SM SKC
     FM300000 20005KT P6SM SCT250
     FM300400 20008KT P6SM BKN150
     FM300900 21010KT P6SM BKN050
     FM301400 26012G22KT P6SM SCT050=



000
FTUS41 KPHI 291127
TAFILG
TAF
KILG 291127Z 2912/3012 32010KT P6SM SKC
     FM292000 26008KT P6SM SKC
     FM300000 20005KT P6SM SCT250
     FM300400 19008KT P6SM BKN150
     FM300900 21010KT P6SM BKN050=



000
FTUS41 KPHI 291127
TAFPHL
TAF
KPHL 291127Z 2912/3018 32012KT P6SM FEW060
     FM292000 26008KT P6SM SKC
     FM300000 20005KT P6SM SCT250
     FM300400 20008KT P6SM BKN150
     FM300900 21010KT P6SM BKN050
     FM301400 26012G22KT P6SM SCT050=



000
FTUS41 KPHI 291127
TAFMIV
TAF
KMIV 291127Z 2912/3012 32008KT P6SM SKC
     FM292000 27008KT P6SM SKC
     FM292300 VRB03KT P6SM SCT250
     FM300400 19005KT P6SM BKN200
     FM301000 21008KT P6SM BKN100=



000
FTUS41 KPHI 291127
TAFRDG
TAF
KRDG 291127Z 2912/3012 32008KT P6SM SKC
     FM292000 26008KT P6SM SKC
     FM300000 20005KT P6SM SCT250
     FM300300 18005KT P6SM BKN150
     FM300800 21008KT P6SM BKN040=



000
FTUS41 KPHI 291127
TAFTTN
TAF
KTTN 291127Z 2912/3012 34008KT P6SM SKC
     FM292000 28008KT P6SM SKC
     FM300000 22005KT P6SM SCT250
     FM300400 20005KT P6SM BKN150
     FM300900 21010KT P6SM BKN050=



000
FTUS41 KPHI 291127
TAFPNE
TAF
KPNE 291127Z 2912/3012 32008KT P6SM SKC
     FM292000 26008KT P6SM SKC
     FM300000 22005KT P6SM SCT250
     FM300400 20005KT P6SM BKN150
     FM300900 22010KT P6SM BKN050=



000
FTUS41 KPHI 291127
TAFACY
TAF
KACY 291127Z 2912/3012 32010KT P6SM SKC
     FM292000 27008KT P6SM SKC
     FM300000 VRB03KT P6SM SCT250
     FM300400 19005KT P6SM BKN200
     FM300900 22010KT P6SM BKN050=



000
FTUS41 KPHI 291127
TAFABE
TAF
KABE 291127Z 2912/3012 32008KT P6SM SKC
     FM292000 27008KT P6SM SKC
     FM300000 22005KT P6SM SCT250
     FM300300 20005KT P6SM BKN150
     FM300800 21008KT P6SM BKN040=



000
FTUS41 KPHI 291127
TAFRDG
TAF
KRDG 291127Z 2912/3012 32008KT P6SM SKC
     FM292000 26008KT P6SM SKC
     FM300000 20005KT P6SM SCT250
     FM300300 18005KT P6SM BKN150
     FM300800 21008KT P6SM BKN040=



000
FTUS41 KPHI 291127
TAFMIV
TAF
KMIV 291127Z 2912/3012 32008KT P6SM SKC
     FM292000 27008KT P6SM SKC
     FM292300 VRB03KT P6SM SCT250
     FM300400 19005KT P6SM BKN200
     FM301000 21008KT P6SM BKN100=



000
FTUS41 KPHI 291127
TAFABE
TAF
KABE 291127Z 2912/3012 32008KT P6SM SKC
     FM292000 27008KT P6SM SKC
     FM300000 22005KT P6SM SCT250
     FM300300 20005KT P6SM BKN150
     FM300800 21008KT P6SM BKN040=



000
FTUS41 KPHI 291127
TAFPNE
TAF
KPNE 291127Z 2912/3012 32008KT P6SM SKC
     FM292000 26008KT P6SM SKC
     FM300000 22005KT P6SM SCT250
     FM300400 20005KT P6SM BKN150
     FM300900 22010KT P6SM BKN050=



000
FTUS41 KPHI 291127
TAFTTN
TAF
KTTN 291127Z 2912/3012 34008KT P6SM SKC
     FM292000 28008KT P6SM SKC
     FM300000 22005KT P6SM SCT250
     FM300400 20005KT P6SM BKN150
     FM300900 21010KT P6SM BKN050=



000
FTUS41 KPHI 291127
TAFACY
TAF
KACY 291127Z 2912/3012 32010KT P6SM SKC
     FM292000 27008KT P6SM SKC
     FM300000 VRB03KT P6SM SCT250
     FM300400 19005KT P6SM BKN200
     FM300900 22010KT P6SM BKN050=



000
FTUS41 KPHI 291127
TAFILG
TAF
KILG 291127Z 2912/3012 32010KT P6SM SKC
     FM292000 26008KT P6SM SKC
     FM300000 20005KT P6SM SCT250
     FM300400 19008KT P6SM BKN150
     FM300900 21010KT P6SM BKN050=



000
FTUS41 KPHI 291127
TAFPHL
TAF
KPHL 291127Z 2912/3018 32012KT P6SM FEW060
     FM292000 26008KT P6SM SKC
     FM300000 20005KT P6SM SCT250
     FM300400 20008KT P6SM BKN150
     FM300900 21010KT P6SM BKN050
     FM301400 26012G22KT P6SM SCT050=



000
FTUS41 KPHI 290901 AAA
TAFILG
TAF AMD
KILG 290901Z 2909/3006 32010KT P6SM SCT050
     FM292000 26008KT P6SM SKC
     FM300000 20005KT P6SM SCT250
     FM300400 19008KT P6SM BKN150=



000
FTUS41 KPHI 290848 AAA
TAFPHL
TAF AMD
KPHL 290848Z 2909/3012 32010KT P6SM SCT060
     FM291200 33012KT P6SM FEW100
     FM292000 26008KT P6SM SKC
     FM300000 20005KT P6SM SCT250
     FM300400 20008KT P6SM BKN150=



000
FTUS41 KPHI 290523
TAFPHL
TAF
KPHL 290523Z 2906/3012 33012G22KT P6SM BKN050
     FM290900 33012KT P6SM FEW100
     FM292000 26008KT P6SM SKC
     FM300000 20005KT P6SM SCT250
     FM300400 20008KT P6SM BKN150=



000
FTUS41 KPHI 290523
TAFABE
TAF
KABE 290523Z 2906/3006 34010G18KT P6SM BKN050
     FM290900 32010KT P6SM FEW100
     FM292000 27008KT P6SM SKC
     FM300000 22005KT P6SM SCT250
     FM300300 20005KT P6SM BKN150=



000
FTUS41 KPHI 290523
TAFACY
TAF
KACY 290523Z 2906/3006 32010G18KT P6SM SCT050
     FM291300 32012KT P6SM SKC
     FM292000 27008KT P6SM SKC
     FM300000 VRB03KT P6SM SCT250
     FM300400 19005KT P6SM BKN200=



000
FTUS41 KPHI 290523
TAFPNE
TAF
KPNE 290523Z 2906/3006 33012G20KT P6SM BKN050
     FM290900 33012KT P6SM FEW100
     FM292000 26008KT P6SM SKC
     FM300000 22005KT P6SM SCT250
     FM300400 20005KT P6SM BKN150=



000
FTUS41 KPHI 290523
TAFILG
TAF
KILG 290523Z 2906/3006 32010G18KT P6SM SCT050
     FM291300 33010KT P6SM SKC
     FM292000 26008KT P6SM SKC
     FM300000 20005KT P6SM SCT250
     FM300400 19008KT P6SM BKN150=



000
FTUS41 KPHI 290523
TAFRDG
TAF
KRDG 290523Z 2906/3006 33010G18KT P6SM BKN070
     FM290900 32010KT P6SM FEW100
     FM292000 26008KT P6SM SKC
     FM300000 20005KT P6SM SCT250
     FM300300 20005KT P6SM BKN150=



000
FTUS41 KPHI 290523
TAFTTN
TAF
KTTN 290523Z 2906/3006 34010G18KT P6SM BKN060
     FM290900 34010KT P6SM FEW100
     FM292000 28008KT P6SM SKC
     FM300000 22005KT P6SM SCT250
     FM300400 20005KT P6SM BKN150=



000
FTUS41 KPHI 290523
TAFMIV
TAF
KMIV 290523Z 2906/3006 32012KT P6SM SCT060
     FM291300 31010KT P6SM SKC
     FM292000 27008KT P6SM SKC
     FM292300 VRB03KT P6SM SCT250
     FM300400 19005KT P6SM BKN200=



000
FTUS41 KPHI 290523
TAFRDG
TAF
KRDG 290523Z 2906/3006 33010G18KT P6SM BKN070
     FM290900 32010KT P6SM FEW100
     FM292000 26008KT P6SM SKC
     FM300000 20005KT P6SM SCT250
     FM300300 20005KT P6SM BKN150=



000
FTUS41 KPHI 290523
TAFABE
TAF
KABE 290523Z 2906/3006 34010G18KT P6SM BKN050
     FM290900 32010KT P6SM FEW100
     FM292000 27008KT P6SM SKC
     FM300000 22005KT P6SM SCT250
     FM300300 20005KT P6SM BKN150=



000
FTUS41 KPHI 290523
TAFACY
TAF
KACY 290523Z 2906/3006 32010G18KT P6SM SCT050
     FM291300 32012KT P6SM SKC
     FM292000 27008KT P6SM SKC
     FM300000 VRB03KT P6SM SCT250
     FM300400 19005KT P6SM BKN200=



000
FTUS41 KPHI 290523
TAFPHL
TAF
KPHL 290523Z 2906/3012 33012G22KT P6SM BKN050
     FM290900 33012KT P6SM FEW100
     FM292000 26008KT P6SM SKC
     FM300000 20005KT P6SM SCT250
     FM300400 20008KT P6SM BKN150=



000
FTUS41 KPHI 290523
TAFPNE
TAF
KPNE 290523Z 2906/3006 33012G20KT P6SM BKN050
     FM290900 33012KT P6SM FEW100
     FM292000 26008KT P6SM SKC
     FM300000 22005KT P6SM SCT250
     FM300400 20005KT P6SM BKN150=



000
FTUS41 KPHI 290523
TAFTTN
TAF
KTTN 290523Z 2906/3006 34010G18KT P6SM BKN060
     FM290900 34010KT P6SM FEW100
     FM292000 28008KT P6SM SKC
     FM300000 22005KT P6SM SCT250
     FM300400 20005KT P6SM BKN150=



000
FTUS41 KPHI 290523
TAFMIV
TAF
KMIV 290523Z 2906/3006 32012KT P6SM SCT060
     FM291300 31010KT P6SM SKC
     FM292000 27008KT P6SM SKC
     FM292300 VRB03KT P6SM SCT250
     FM300400 19005KT P6SM BKN200=



000
FTUS41 KPHI 290523
TAFILG
TAF
KILG 290523Z 2906/3006 32010G18KT P6SM SCT050
     FM291300 33010KT P6SM SKC
     FM292000 26008KT P6SM SKC
     FM300000 20005KT P6SM SCT250
     FM300400 19008KT P6SM BKN150=



000
FTUS41 KPHI 290426 AAA
TAFPHL
TAF AMD
KPHL 290426Z 2904/3006 33012G22KT P6SM BKN050
     FM290900 33010G20KT P6SM SCT100
     FM291200 33012KT P6SM SKC
     FM292000 26007KT P6SM SKC
     FM300000 20005KT P6SM SCT250=



000
FTUS41 KPHI 290307 AAA
TAFACY
TAF AMD
KACY 290307Z 2903/2924 30010G18KT P6SM SCT050
     FM291400 32008KT P6SM SKC
     FM292000 26007KT P6SM SKC=



000
FTUS41 KPHI 290306 AAA
TAFMIV
TAF AMD
KMIV 290306Z 2903/2924 30010G18KT P6SM SCT060
     FM290900 32010KT P6SM SCT100
     FM292000 27007KT P6SM SKC=



000
FTUS41 KPHI 290305 AAA
TAFILG
TAF AMD
KILG 290305Z 2903/2924 31010G18KT P6SM SCT050
     FM290900 32012G20KT P6SM SCT100
     FM291200 32012KT P6SM SKC
     FM292000 26007KT P6SM SKC=



000
FTUS41 KPHI 290305 AAA
TAFRDG
TAF AMD
KRDG 290305Z 2903/2924 33012G20KT P6SM BKN070
     FM290600 32010G18KT P6SM SCT100
     FM291100 32010KT P6SM SKC
     FM292000 26006KT P6SM SKC=



000
FTUS41 KPHI 290305 AAA
TAFRDG
TAF AMD
KRDG 290305Z 2903/2924 33012G20KT P6SM BKN070
     FM290600 32010G18KT P6SM SCT100
     FM291100 32010KT P6SM SKC
     FM292000 26006KT P6SM SKC=



000
FTUS41 KPHI 282327
TAFPNE
TAF
KPNE 282327Z 2900/2924 33018G24KT P6SM BKN050 OVC080
      TEMPO 2900/2902 -SN
     FM290900 33010G20KT P6SM SCT100
     FM291200 34012KT P6SM SKC
     FM292000 27006KT P6SM SKC=



000
FTUS41 KPHI 282327
TAFILG
TAF
KILG 282327Z 2900/2924 31014G25KT P6SM SCT050 BKN100
      TEMPO 2900/2902 -SN
     FM290900 32012G20KT P6SM SCT100
     FM291200 32012KT P6SM SKC
     FM292000 26007KT P6SM SKC=



000
FTUS41 KPHI 282327
TAFACY
TAF
KACY 282327Z 2900/2924 30016G22KT P6SM BKN050 OVC060
      TEMPO 2900/2903 -SN
     FM290900 32012G18KT P6SM SCT100
     FM291400 32008KT P6SM SKC
     FM292000 26007KT P6SM SKC=



000
FTUS41 KPHI 282327
TAFPHL
TAF
KPHL 282327Z 2900/3006 32018G24KT P6SM BKN050 OVC070
      TEMPO 2900/2902 -SN
     FM290900 33010G20KT P6SM SCT100
     FM291200 33012KT P6SM SKC
     FM292000 26007KT P6SM SKC
     FM300000 20005KT P6SM SCT250=



000
FTUS41 KPHI 282327
TAFTTN
TAF
KTTN 282327Z 2900/2924 32015G25KT P6SM BKN060 OVC090
     FM290800 35010G20KT P6SM SCT100
     FM291200 35010KT P6SM SKC
     FM292000 27006KT P6SM SKC=



000
FTUS41 KPHI 282327
TAFABE
TAF
KABE 282327Z 2900/2924 34015G22KT P6SM BKN040 BKN060
     FM290600 32010G18KT P6SM SCT100
     FM291100 32010KT P6SM SKC
     FM292000 25006KT P6SM SKC=



000
FTUS41 KPHI 282327
TAFRDG
TAF
KRDG 282327Z 2900/2924 32013G22KT P6SM BKN070 OVC080
     FM290600 32010G18KT P6SM SCT100
     FM291100 32010KT P6SM SKC
     FM292000 26006KT P6SM SKC=



000
FTUS41 KPHI 282327
TAFMIV
TAF
KMIV 282327Z 2900/2924 30015G26KT P6SM BKN060 OVC070
      TEMPO 2900/2903 -SN
     FM290900 32008G16KT P6SM SCT100
     FM291400 32008KT P6SM SKC
     FM292000 27007KT P6SM SKC=



000
FTUS41 KPHI 282056 AAA
TAFPHL
TAF AMD
KPHL 282056Z 2821/2924 31015G25KT P6SM BKN070 OVC090
     FM290300 33015G25KT P6SM SCT070 BKN150
     FM290900 33012G22KT P6SM SCT100
     FM291200 33012KT P6SM SKC
     FM291800 30008KT P6SM SKC=



000
FTUS41 KPHI 281728
TAFACY
TAF
KACY 281728Z 2818/2918 30015G22KT P6SM BKN050
     FM290200 32012G25KT P6SM SCT050
     FM290700 31012G18KT P6SM SCT100
     FM291000 31008KT P6SM SKC=



000
FTUS41 KPHI 281728
TAFABE
TAF
KABE 281728Z 2818/2918 32015G22KT P6SM BKN060
     FM290300 33012G25KT P6SM FEW030 SCT050 BKN100
     FM290600 33010G18KT P6SM SCT100
     FM290900 32010KT P6SM SKC=



000
FTUS41 KPHI 281728
TAFPHL
TAF
KPHL 281728Z 2818/2924 34014G22KT P6SM BKN050
     FM290300 33015G25KT P6SM SCT050 BKN150
     FM290900 33012G22KT P6SM SCT100
     FM291200 33012KT P6SM SKC
     FM291800 30008KT P6SM SKC=



000
FTUS41 KPHI 281728
TAFMIV
TAF
KMIV 281728Z 2818/2918 30012G20KT P6SM BKN050
     FM290200 33010G24KT P6SM SCT050
     FM290700 31008G16KT P6SM SCT100
     FM291000 31008KT P6SM SKC=



000
FTUS41 KPHI 281728
TAFRDG
TAF
KRDG 281728Z 2818/2918 32015G22KT P6SM BKN050
     FM290200 33012G25KT P6SM SCT050 BKN100
     FM290600 33010G18KT P6SM SCT100
     FM290900 32010KT P6SM SKC=



000
FTUS41 KPHI 281728
TAFILG
TAF
KILG 281728Z 2818/2918 32014G22KT P6SM BKN050
     FM290200 32014G25KT P6SM SCT050 BKN150
     FM290700 33012G22KT P6SM SCT100
     FM291000 33012KT P6SM SKC=



000
FTUS41 KPHI 281728
TAFTTN
TAF
KTTN 281728Z 2818/2918 33015G22KT P6SM BKN050
     FM290300 33012G25KT P6SM SCT050 BKN150
     FM290800 35010G20KT P6SM SCT100
     FM291200 35010KT P6SM SKC=



000
FTUS41 KPHI 281728
TAFACY
TAF
KACY 281728Z 2818/2918 30015G22KT P6SM BKN050
     FM290200 32012G25KT P6SM SCT050
     FM290700 31012G18KT P6SM SCT100
     FM291000 31008KT P6SM SKC=



000
FTUS41 KPHI 281728
TAFABE
TAF
KABE 281728Z 2818/2918 32015G22KT P6SM BKN060
     FM290300 33012G25KT P6SM FEW030 SCT050 BKN100
     FM290600 33010G18KT P6SM SCT100
     FM290900 32010KT P6SM SKC=



000
FTUS41 KPHI 281728
TAFRDG
TAF
KRDG 281728Z 2818/2918 32015G22KT P6SM BKN050
     FM290200 33012G25KT P6SM SCT050 BKN100
     FM290600 33010G18KT P6SM SCT100
     FM290900 32010KT P6SM SKC=



000
FTUS41 KPHI 281728
TAFPNE
TAF
KPNE 281728Z 2818/2918 32015G22KT P6SM BKN050
     FM290300 33012G25KT P6SM SCT050 BKN150
     FM290900 33010G20KT P6SM SCT100
     FM291200 33012KT P6SM SKC=



000
FTUS41 KPHI 281728
TAFPHL
TAF
KPHL 281728Z 2818/2924 34014G22KT P6SM BKN050
     FM290300 33015G25KT P6SM SCT050 BKN150
     FM290900 33012G22KT P6SM SCT100
     FM291200 33012KT P6SM SKC
     FM291800 30008KT P6SM SKC=



000
FTUS41 KPHI 281728
TAFMIV
TAF
KMIV 281728Z 2818/2918 30012G20KT P6SM BKN050
     FM290200 33010G24KT P6SM SCT050
     FM290700 31008G16KT P6SM SCT100
     FM291000 31008KT P6SM SKC=



000
FTUS41 KPHI 281728
TAFILG
TAF
KILG 281728Z 2818/2918 32014G22KT P6SM BKN050
     FM290200 32014G25KT P6SM SCT050 BKN150
     FM290700 33012G22KT P6SM SCT100
     FM291000 33012KT P6SM SKC=



000
FTUS41 KPHI 281728
TAFTTN
TAF
KTTN 281728Z 2818/2918 33015G22KT P6SM BKN050
     FM290300 33012G25KT P6SM SCT050 BKN150
     FM290800 35010G20KT P6SM SCT100
     FM291200 35010KT P6SM SKC=



000
FTUS41 KPHI 281728
TAFPNE
TAF
KPNE 281728Z 2818/2918 32015G22KT P6SM BKN050
     FM290300 33012G25KT P6SM SCT050 BKN150
     FM290900 33010G20KT P6SM SCT100
     FM291200 33012KT P6SM SKC=



000
FTUS41 KPHI 281355 AAA
TAFPHL
TAF AMD
KPHL 281355Z 2814/2918 32014G24KT P6SM BKN050
      TEMPO 2814/2816 BKN035
     FM290300 33014G24KT P6SM SCT050 BKN150
     FM290600 33012G22KT P6SM SCT100=



000
FTUS41 KPHI 281355 AAA
TAFPHL
TAF AMD
KPHL 281355Z 2814/2918 32014G24KT P6SM BKN050
      TEMPO 2814/2816 BKN035
     FM290300 33014G24KT P6SM SCT050 BKN150
     FM290600 33012G22KT P6SM SCT100=



000
FTUS41 KPHI 281124
TAFPNE
TAF
KPNE 281124Z 2812/2912 34010G18KT P6SM BKN060
     FM281400 32015G25KT P6SM BKN050
     FM290300 33012G22KT P6SM SCT050 BKN150
     FM290600 33010G20KT P6SM SCT100=



000
FTUS41 KPHI 281124
TAFMIV
TAF
KMIV 281124Z 2812/2912 33010G18KT P6SM BKN060
     FM281400 30015G25KT P6SM BKN050
     FM290200 33010G18KT P6SM SCT050=



000
FTUS41 KPHI 281124
TAFILG
TAF
KILG 281124Z 2812/2912 34010G18KT P6SM BKN060
     FM281400 32016G26KT P6SM BKN050
     FM290200 32014G24KT P6SM SCT050 BKN150
     FM290600 33012G22KT P6SM SCT100=



000
FTUS41 KPHI 281124
TAFTTN
TAF
KTTN 281124Z 2812/2912 35010G18KT P6SM BKN070
     FM281400 33015G25KT P6SM BKN050
     FM290300 33012G22KT P6SM SCT050 BKN150
     FM290600 35010G20KT P6SM SCT100=



000
FTUS41 KPHI 281124
TAFPHL
TAF
KPHL 281124Z 2812/2918 35012G22KT P6SM BKN060
     FM281400 32016G26KT P6SM BKN050
     FM290300 33014G24KT P6SM SCT050 BKN150
     FM290600 33012G22KT P6SM SCT100=



000
FTUS41 KPHI 281124
TAFRDG
TAF
KRDG 281124Z 2812/2912 35010G18KT P6SM BKN040
     FM281400 32015G25KT P6SM BKN050
     FM290200 33012G22KT P6SM SCT050 BKN100
     FM290600 33010G18KT P6SM SCT100=



000
FTUS41 KPHI 281124
TAFABE
TAF
KABE 281124Z 2812/2912 33010G18KT P6SM BKN040
     FM281400 32015G25KT P6SM BKN050
     FM290300 33012G22KT P6SM SCT050 BKN100
     FM290600 33010G18KT P6SM SCT100=



000
FTUS41 KPHI 281124
TAFACY
TAF
KACY 281124Z 2812/2912 33012G20KT P6SM BKN070
     FM281400 30015G25KT P6SM BKN050
     FM290200 32012G22KT P6SM SCT050=



000
FTUS41 KPHI 281003 AAA
TAFACY
TAF AMD
KACY 281003Z 2810/2906 33012KT P6SM BKN080
     FM281400 30015G25KT P6SM BKN050
     FM290200 33012G22KT P6SM SCT050=



000
FTUS41 KPHI 281003 AAA
TAFABE
TAF AMD
KABE 281003Z 2810/2906 33012KT P6SM BKN040
     FM281400 32015G25KT P6SM BKN050
     FM290300 33012G22KT P6SM SCT050=



000
FTUS41 KPHI 281003 AAA
TAFABE
TAF AMD
KABE 281003Z 2810/2906 33012KT P6SM BKN040
     FM281400 32015G25KT P6SM BKN050
     FM290300 33012G22KT P6SM SCT050=



000
FTUS41 KPHI 281003 AAA
TAFACY
TAF AMD
KACY 281003Z 2810/2906 33012KT P6SM BKN080
     FM281400 30015G25KT P6SM BKN050
     FM290200 33012G22KT P6SM SCT050=



000
FTUS41 KPHI 280931 AAA
TAFRDG
TAF AMD
KRDG 280931Z 2810/2906 36012KT P6SM OVC035
     FM281400 32015G25KT P6SM BKN050
     FM290200 33012G22KT P6SM SCT050=



000
FTUS41 KPHI 280859 AAA
TAFPHL
TAF AMD
KPHL 280859Z 2809/2912 35012G22KT P6SM BKN060
     FM281400 32016G26KT P6SM BKN050
     FM290300 33012G22KT P6SM SCT050=



000
FTUS41 KPHI 280521
TAFPNE
TAF
KPNE 280521Z 2806/2906 36010KT P6SM SCT060 BKN120
     FM281000 35012KT P6SM BKN050
     FM281400 32015G25KT P6SM BKN050
     FM290300 33012G22KT P6SM SCT050=



000
FTUS41 KPHI 280521
TAFPHL
TAF
KPHL 280521Z 2806/2912 36010KT P6SM SCT060 BKN120
     FM281000 35012G20KT P6SM BKN050
     FM281400 32016G26KT P6SM BKN050
     FM290300 33012G22KT P6SM SCT050=



000
FTUS41 KPHI 280521
TAFTTN
TAF
KTTN 280521Z 2806/2906 36010KT P6SM SCT050 BKN120
     FM280900 36012KT P6SM BKN050
     FM281400 33015G25KT P6SM BKN050
     FM290300 33012G22KT P6SM SCT050=



000
FTUS41 KPHI 280521
TAFACY
TAF
KACY 280521Z 2806/2906 36010KT P6SM BKN060
     FM281100 33012KT P6SM BKN050
     FM281400 30015G25KT P6SM BKN050
     FM290200 33012G22KT P6SM SCT050=



000
FTUS41 KPHI 280521
TAFMIV
TAF
KMIV 280521Z 2806/2906 34010KT P6SM BKN060
     FM281100 33012KT P6SM BKN050
     FM281400 30015G25KT P6SM BKN050
     FM290200 33010G18KT P6SM SCT050=



000
FTUS41 KPHI 280521
TAFILG
TAF
KILG 280521Z 2806/2906 34010KT P6SM BKN060
     FM281000 33012KT P6SM BKN050
     FM281400 32016G26KT P6SM BKN050
     FM290200 32012G22KT P6SM SCT050=



000
FTUS41 KPHI 280521
TAFABE
TAF
KABE 280521Z 2806/2906 36010KT P6SM OVC050
     FM280900 35012KT P6SM OVC050
     FM281400 32015G25KT P6SM BKN050
     FM290300 33012G22KT P6SM SCT050=



000
FTUS41 KPHI 280521
TAFRDG
TAF
KRDG 280521Z 2806/2906 36010KT P6SM OVC050
     FM280900 35012KT P6SM OVC050
     FM281400 32015G25KT P6SM BKN050
     FM290200 33012G22KT P6SM SCT050=



000
FTUS41 KPHI 280521
TAFPNE
TAF
KPNE 280521Z 2806/2906 36010KT P6SM SCT060 BKN120
     FM281000 35012KT P6SM BKN050
     FM281400 32015G25KT P6SM BKN050
     FM290300 33012G22KT P6SM SCT050=



000
FTUS41 KPHI 280521
TAFMIV
TAF
KMIV 280521Z 2806/2906 34010KT P6SM BKN060
     FM281100 33012KT P6SM BKN050
     FM281400 30015G25KT P6SM BKN050
     FM290200 33010G18KT P6SM SCT050=



000
FTUS41 KPHI 280521
TAFABE
TAF
KABE 280521Z 2806/2906 36010KT P6SM OVC050
     FM280900 35012KT P6SM OVC050
     FM281400 32015G25KT P6SM BKN050
     FM290300 33012G22KT P6SM SCT050=



000
FTUS41 KPHI 280521
TAFPHL
TAF
KPHL 280521Z 2806/2912 36010KT P6SM SCT060 BKN120
     FM281000 35012G20KT P6SM BKN050
     FM281400 32016G26KT P6SM BKN050
     FM290300 33012G22KT P6SM SCT050=



000
FTUS41 KPHI 280521
TAFILG
TAF
KILG 280521Z 2806/2906 34010KT P6SM BKN060
     FM281000 33012KT P6SM BKN050
     FM281400 32016G26KT P6SM BKN050
     FM290200 32012G22KT P6SM SCT050=



000
FTUS41 KPHI 280521
TAFTTN
TAF
KTTN 280521Z 2806/2906 36010KT P6SM SCT050 BKN120
     FM280900 36012KT P6SM BKN050
     FM281400 33015G25KT P6SM BKN050
     FM290300 33012G22KT P6SM SCT050=



000
FTUS41 KPHI 280521
TAFACY
TAF
KACY 280521Z 2806/2906 36010KT P6SM BKN060
     FM281100 33012KT P6SM BKN050
     FM281400 30015G25KT P6SM BKN050
     FM290200 33012G22KT P6SM SCT050=



000
FTUS41 KPHI 280521
TAFRDG
TAF
KRDG 280521Z 2806/2906 36010KT P6SM OVC050
     FM280900 35012KT P6SM OVC050
     FM281400 32015G25KT P6SM BKN050
     FM290200 33012G22KT P6SM SCT050=



000
FTUS41 KPHI 280154 AAA
TAFPHL
TAF AMD
KPHL 280154Z 2802/2906 36009KT P6SM OVC060
     FM280600 35012KT P6SM BKN050
     FM281200 34012G21KT P6SM VCSH BKN050
     FM281600 33015G25KT P6SM BKN060
     FM290200 33013G23KT P6SM SKC=



000
FTUS41 KPHI 280153 AAA
TAFABE
TAF AMD
KABE 280153Z 2802/2824 00000KT P6SM BKN060
     FM280600 33010KT P6SM BKN060
     FM281200 33012G19KT P6SM VCSH BKN050
     FM281600 32015G25KT P6SM BKN060=



000
FTUS41 KPHI 272334
TAFACY
TAF
KACY 272334Z 2800/2824 34006KT P6SM SCT050 OVC090
      TEMPO 2800/2804 BKN050
     FM280600 34010KT P6SM SCT050 BKN100
     FM281200 33011G19KT P6SM SCT050 BKN100
     FM281600 32015G25KT P6SM VCSH BKN060=



000
FTUS41 KPHI 272334
TAFABE
TAF
KABE 272334Z 2800/2824 32007KT P6SM SCT050
      TEMPO 2802/2806 BKN050
     FM280600 33010KT P6SM BKN050
     FM281200 33012G19KT P6SM VCSH BKN050
     FM281600 32015G25KT P6SM BKN060=



000
FTUS41 KPHI 272334
TAFPNE
TAF
KPNE 272334Z 2800/2824 36009KT P6SM BKN050
     FM280600 35012KT P6SM BKN050
     FM281200 32013G20KT P6SM VCSH BKN050
     FM281600 32015G25KT P6SM BKN060=



000
FTUS41 KPHI 272334
TAFPHL
TAF
KPHL 272334Z 2800/2906 34008KT P6SM BKN050
     FM280600 34012KT P6SM BKN050
     FM281200 33012G21KT P6SM VCSH BKN050
     FM281600 32015G25KT P6SM BKN060
     FM290200 33013G23KT P6SM SKC=



000
FTUS41 KPHI 272334
TAFRDG
TAF
KRDG 272334Z 2800/2824 33008KT P6SM BKN050
      TEMPO 2800/2802 SCT050
     FM281200 33012G24KT P6SM SCT050
     FM281600 32015G25KT P6SM VCSH BKN060=



000
FTUS41 KPHI 272334
TAFILG
TAF
KILG 272334Z 2800/2824 35009KT P6SM OVC050
     FM280600 34012KT P6SM BKN050
     FM281200 32012G21KT P6SM VCSH BKN050
     FM281600 32015G25KT P6SM BKN060=



000
FTUS41 KPHI 272334
TAFMIV
TAF
KMIV 272334Z 2800/2824 32005KT P6SM SCT045 BKN110
     FM280600 34009KT P6SM SCT050 BKN100
     FM281200 32012G19KT P6SM BKN050
     FM281600 30015G25KT P6SM BKN060=



000
FTUS41 KPHI 272334
TAFACY
TAF
KACY 272334Z 2800/2824 34006KT P6SM SCT050 OVC090
      TEMPO 2800/2804 BKN050
     FM280600 34010KT P6SM SCT050 BKN100
     FM281200 33011G19KT P6SM SCT050 BKN100
     FM281600 32015G25KT P6SM VCSH BKN060=



000
FTUS41 KPHI 272334
TAFTTN
TAF
KTTN 272334Z 2800/2824 35005KT P6SM BKN050
     FM280600 35009KT P6SM BKN050
     FM281200 34012G19KT P6SM VCSH BKN050
     FM281600 32015G25KT P6SM VCSH BKN050=



000
FTUS41 KPHI 272334
TAFTTN
TAF
KTTN 272334Z 2800/2824 35005KT P6SM BKN050
     FM280600 35009KT P6SM BKN050
     FM281200 34012G19KT P6SM VCSH BKN050
     FM281600 32015G25KT P6SM VCSH BKN050=



000
FTUS41 KPHI 272334
TAFPNE
TAF
KPNE 272334Z 2800/2824 36009KT P6SM BKN050
     FM280600 35012KT P6SM BKN050
     FM281200 32013G20KT P6SM VCSH BKN050
     FM281600 32015G25KT P6SM BKN060=



000
FTUS41 KPHI 272334
TAFILG
TAF
KILG 272334Z 2800/2824 35009KT P6SM OVC050
     FM280600 34012KT P6SM BKN050
     FM281200 32012G21KT P6SM VCSH BKN050
     FM281600 32015G25KT P6SM BKN060=



000
FTUS41 KPHI 272334
TAFPHL
TAF
KPHL 272334Z 2800/2906 34008KT P6SM BKN050
     FM280600 34012KT P6SM BKN050
     FM281200 33012G21KT P6SM VCSH BKN050
     FM281600 32015G25KT P6SM BKN060
     FM290200 33013G23KT P6SM SKC=



000
FTUS41 KPHI 272334
TAFMIV
TAF
KMIV 272334Z 2800/2824 32005KT P6SM SCT045 BKN110
     FM280600 34009KT P6SM SCT050 BKN100
     FM281200 32012G19KT P6SM BKN050
     FM281600 30015G25KT P6SM BKN060=



000
FTUS41 KPHI 272334
TAFRDG
TAF
KRDG 272334Z 2800/2824 33008KT P6SM BKN050
      TEMPO 2800/2802 SCT050
     FM281200 33012G24KT P6SM SCT050
     FM281600 32015G25KT P6SM VCSH BKN060=



000
FTUS41 KPHI 272334
TAFABE
TAF
KABE 272334Z 2800/2824 32007KT P6SM SCT050
      TEMPO 2802/2806 BKN050
     FM280600 33010KT P6SM BKN050
     FM281200 33012G19KT P6SM VCSH BKN050
     FM281600 32015G25KT P6SM BKN060=



000
FTUS41 KPHI 272115 AAA
TAFPHL
TAF AMD
KPHL 272115Z 2721/2824 35008KT P6SM SCT040 OVC150
     FM280000 33008KT P6SM SCT045 BKN100
      TEMPO 2800/2802 BKN045
     FM280600 34012KT P6SM SCT040 BKN100
     FM281200 32012G21KT P6SM SCT045
     FM281500 33015G25KT P6SM BKN045=



000
FTUS41 KPHI 272052 AAA
TAFACY
TAF AMD
KACY 272052Z 2721/2818 30006KT 6SM BR VCSH FEW013 OVC060
     FM272200 31007KT P6SM SCT035 BKN070
      TEMPO 2722/2801 BKN035
     FM280600 34011KT P6SM SCT045 BKN100
     FM281200 33012G21KT P6SM SCT045
     FM281600 32014G24KT P6SM BKN045=



000
FTUS41 KPHI 272052 AAA
TAFACY
TAF AMD
KACY 272052Z 2721/2818 30006KT 6SM BR VCSH FEW013 OVC060
     FM272200 31007KT P6SM SCT035 BKN070
      TEMPO 2722/2801 BKN035
     FM280600 34011KT P6SM SCT045 BKN100
     FM281200 33012G21KT P6SM SCT045
     FM281600 32014G24KT P6SM BKN045=



000
FTUS41 KPHI 272049 AAA
TAFMIV
TAF AMD
KMIV 272049Z 2721/2818 33005KT P6SM BKN035 OVC070
     FM272200 33007KT P6SM SCT035 BKN070
     FM280600 34011KT P6SM SCT045 BKN100
     FM281200 33012G21KT P6SM BKN045=



000
FTUS41 KPHI 271741
TAFABE
TAF
KABE 271741Z 2718/2818 33010KT P6SM BKN040 OVC120
     FM280000 33008KT P6SM SCT045 BKN120
     FM281200 33012G24KT P6SM BKN040=



000
FTUS41 KPHI 271741
TAFACY
TAF
KACY 271741Z 2718/2818 33012KT P6SM -RA SCT012 OVC040
      TEMPO 2718/2722 4SM -RA BR BKN012
     FM272200 33007KT P6SM BKN040
     FM280600 34011KT P6SM SCT045 BKN100
     FM281200 33012G24KT P6SM BKN045=



000
FTUS41 KPHI 271741
TAFPHL
TAF
KPHL 271741Z 2718/2824 33011KT P6SM SCT035 OVC100
     FM280000 33008KT P6SM SCT045 BKN100
     FM280600 34012KT P6SM SCT040 BKN100
     FM281200 32012G22KT P6SM BKN045
     FM281800 34015G25KT P6SM SCT050=



000
FTUS41 KPHI 271741
TAFMIV
TAF
KMIV 271741Z 2718/2818 33008KT P6SM -RA SCT012 OVC050
      TEMPO 2718/2722 4SM -RA BR BKN012
     FM272200 33007KT P6SM BKN040
     FM280600 34011KT P6SM SCT045 BKN100
     FM281200 33012G24KT P6SM BKN045=



000
FTUS41 KPHI 271741
TAFILG
TAF
KILG 271741Z 2718/2818 34010KT P6SM SCT035 OVC100
     FM280000 33008KT P6SM SCT045 BKN100
     FM280600 34012KT P6SM SCT040 BKN100
     FM281200 32012G22KT P6SM BKN045=



000
FTUS41 KPHI 271741
TAFRDG
TAF
KRDG 271741Z 2718/2818 32010KT P6SM BKN040 OVC120
     FM272300 33009KT P6SM SCT045 BKN120
     FM281200 33012G24KT P6SM BKN040=



000
FTUS41 KPHI 271741
TAFPNE
TAF
KPNE 271741Z 2718/2818 33010KT P6SM SCT035 OVC100
     FM280000 33008KT P6SM SCT045 BKN100
     FM280600 34012KT P6SM SCT040 BKN100
     FM281200 32012G22KT P6SM BKN045=



000
FTUS41 KPHI 271741
TAFTTN
TAF
KTTN 271741Z 2718/2818 33010KT P6SM SCT035 OVC100
     FM280000 33008KT P6SM SCT045 BKN100
     FM280600 34012KT P6SM SCT040 BKN100
     FM281200 32012G22KT P6SM BKN045=



000
FTUS41 KPHI 271741
TAFPNE
TAF
KPNE 271741Z 2718/2818 33010KT P6SM SCT035 OVC100
     FM280000 33008KT P6SM SCT045 BKN100
     FM280600 34012KT P6SM SCT040 BKN100
     FM281200 32012G22KT P6SM BKN045=



000
FTUS41 KPHI 271741
TAFTTN
TAF
KTTN 271741Z 2718/2818 33010KT P6SM SCT035 OVC100
     FM280000 33008KT P6SM SCT045 BKN100
     FM280600 34012KT P6SM SCT040 BKN100
     FM281200 32012G22KT P6SM BKN045=



000
FTUS41 KPHI 271741
TAFILG
TAF
KILG 271741Z 2718/2818 34010KT P6SM SCT035 OVC100
     FM280000 33008KT P6SM SCT045 BKN100
     FM280600 34012KT P6SM SCT040 BKN100
     FM281200 32012G22KT P6SM BKN045=



000
FTUS41 KPHI 271741
TAFMIV
TAF
KMIV 271741Z 2718/2818 33008KT P6SM -RA SCT012 OVC050
      TEMPO 2718/2722 4SM -RA BR BKN012
     FM272200 33007KT P6SM BKN040
     FM280600 34011KT P6SM SCT045 BKN100
     FM281200 33012G24KT P6SM BKN045=



000
FTUS41 KPHI 271741
TAFACY
TAF
KACY 271741Z 2718/2818 33012KT P6SM -RA SCT012 OVC040
      TEMPO 2718/2722 4SM -RA BR BKN012
     FM272200 33007KT P6SM BKN040
     FM280600 34011KT P6SM SCT045 BKN100
     FM281200 33012G24KT P6SM BKN045=



000
FTUS41 KPHI 271741
TAFABE
TAF
KABE 271741Z 2718/2818 33010KT P6SM BKN040 OVC120
     FM280000 33008KT P6SM SCT045 BKN120
     FM281200 33012G24KT P6SM BKN040=



000
FTUS41 KPHI 271741
TAFPHL
TAF
KPHL 271741Z 2718/2824 33011KT P6SM SCT035 OVC100
     FM280000 33008KT P6SM SCT045 BKN100
     FM280600 34012KT P6SM SCT040 BKN100
     FM281200 32012G22KT P6SM BKN045
     FM281800 34015G25KT P6SM SCT050=



000
FTUS41 KPHI 271741
TAFRDG
TAF
KRDG 271741Z 2718/2818 32010KT P6SM BKN040 OVC120
     FM272300 33009KT P6SM SCT045 BKN120
     FM281200 33012G24KT P6SM BKN040=



000
FTUS41 KPHI 271517 AAC
TAFACY
TAF AMD
KACY 271517Z 2715/2812 34010G18KT P6SM SCT025 OVC050
      TEMPO 2716/2720 -RA OVC025
     FM272000 33010KT P6SM -SHRA BKN040
     FM280000 34008KT P6SM SCT045 BKN100=



000
FTUS41 KPHI 271517 AAC
TAFACY
TAF AMD
KACY 271517Z 2715/2812 34010G18KT P6SM SCT025 OVC050
      TEMPO 2716/2720 -RA OVC025
     FM272000 33010KT P6SM -SHRA BKN040
     FM280000 34008KT P6SM SCT045 BKN100=



000
FTUS41 KPHI 271513 AAA
TAFMIV
TAF AMD
KMIV 271513Z 2715/2812 34010KT P6SM SCT025 OVC050
      TEMPO 2716/2720 -RA BKN025
     FM272000 33008KT P6SM -SHRA BKN040
     FM280000 34008KT P6SM SCT045 BKN100=



000
FTUS41 KPHI 271511 AAB
TAFILG
TAF AMD
KILG 271511Z 2715/2812 34010KT P6SM SCT025 OVC050
      TEMPO 2716/2720 -RA BKN025
     FM280000 34010KT P6SM SCT045 BKN100=



000
FTUS41 KPHI 271508 AAB
TAFPNE
TAF AMD
KPNE 271508Z 2715/2812 33010KT P6SM OVC060
     FM280000 34010KT P6SM SCT045 BKN100=



000
FTUS41 KPHI 271508 AAB
TAFPNE
TAF AMD
KPNE 271508Z 2715/2812 33010KT P6SM OVC060
     FM280000 34010KT P6SM SCT045 BKN100=



000
FTUS41 KPHI 271507 AAB
TAFTTN
TAF AMD
KTTN 271507Z 2715/2812 33010KT P6SM OVC060
     FM280000 35010KT P6SM SCT045 BKN100=



000
FTUS41 KPHI 271507 AAB
TAFTTN
TAF AMD
KTTN 271507Z 2715/2812 33010KT P6SM OVC060
     FM280000 35010KT P6SM SCT045 BKN100=



000
FTUS41 KPHI 271506 AAB
TAFABE
TAF AMD
KABE 271506Z 2715/2812 33008KT P6SM BKN100
     FM280000 33010KT P6SM SCT045 BKN100=



000
FTUS41 KPHI 271506 AAB
TAFABE
TAF AMD
KABE 271506Z 2715/2812 33008KT P6SM BKN100
     FM280000 33010KT P6SM SCT045 BKN100=



000
FTUS41 KPHI 271505 AAB
TAFRDG
TAF AMD
KRDG 271505Z 2715/2812 33010KT P6SM BKN100
     FM280000 33010KT P6SM SCT045 BKN100=



000
FTUS41 KPHI 271505 AAB
TAFRDG
TAF AMD
KRDG 271505Z 2715/2812 33010KT P6SM BKN100
     FM280000 33010KT P6SM SCT045 BKN100=



000
FTUS41 KPHI 271500 AAB
TAFPHL
TAF AMD
KPHL 271500Z 2715/2818 33009KT P6SM OVC050
     FM280000 34012KT P6SM SCT045 BKN100
     FM281300 32010G20KT P6SM BKN045=



000
FTUS41 KPHI 271420 AAB
TAFACY
TAF AMD
KACY 271420Z 2714/2812 34010KT P6SM SCT012 OVC060
      TEMPO 2714/2715 -RA BKN010
     FM271500 34010G18KT P6SM SCT025 OVC050
      TEMPO 2715/2719 -RA OVC025
     FM271900 33010G18KT P6SM -SHRA BKN040
     FM280000 34010KT P6SM SCT045 BKN100=



000
FTUS41 KPHI 271420 AAB
TAFACY
TAF AMD
KACY 271420Z 2714/2812 34010KT P6SM SCT012 OVC060
      TEMPO 2714/2715 -RA BKN010
     FM271500 34010G18KT P6SM SCT025 OVC050
      TEMPO 2715/2719 -RA OVC025
     FM271900 33010G18KT P6SM -SHRA BKN040
     FM280000 34010KT P6SM SCT045 BKN100=



000
FTUS41 KPHI 271319 AAA
TAFACY
TAF AMD
KACY 271319Z 2713/2812 34010KT P6SM SCT012 OVC060
     FM271500 34010G18KT P6SM SCT025 OVC050
      TEMPO 2715/2719 -RA OVC025
     FM271900 33010G18KT P6SM -SHRA BKN040
     FM280000 34010KT P6SM SCT045 BKN100=



000
FTUS41 KPHI 271315 AAA
TAFPNE
TAF AMD
KPNE 271315Z 2713/2812 34010KT P6SM SCT015 BKN080
     FM271400 33010G18KT P6SM BKN045
     FM280000 34010KT P6SM SCT045 BKN100=



000
FTUS41 KPHI 271315 AAA
TAFILG
TAF AMD
KILG 271315Z 2713/2812 34010KT P6SM SCT015 BKN080
     FM271400 33010G18KT P6SM BKN045
     FM280000 34010KT P6SM SCT045 BKN100=



000
FTUS41 KPHI 271315 AAA
TAFPNE
TAF AMD
KPNE 271315Z 2713/2812 34010KT P6SM SCT015 BKN080
     FM271400 33010G18KT P6SM BKN045
     FM280000 34010KT P6SM SCT045 BKN100=



000
FTUS41 KPHI 271315 AAA
TAFILG
TAF AMD
KILG 271315Z 2713/2812 34010KT P6SM SCT015 BKN080
     FM271400 33010G18KT P6SM BKN045
     FM280000 34010KT P6SM SCT045 BKN100=



000
FTUS41 KPHI 271314 AAA
TAFTTN
TAF AMD
KTTN 271314Z 2713/2812 34010KT P6SM SCT015 BKN080
     FM271400 34008G16KT P6SM BKN045
     FM280000 35010KT P6SM SCT045 BKN100=



000
FTUS41 KPHI 271314 AAA
TAFABE
TAF AMD
KABE 271314Z 2713/2812 33006KT P6SM SCT025 BKN080
     FM271400 32008G16KT P6SM BKN045
     FM280000 33010KT P6SM SCT045 BKN100=



000
FTUS41 KPHI 271314 AAA
TAFABE
TAF AMD
KABE 271314Z 2713/2812 33006KT P6SM SCT025 BKN080
     FM271400 32008G16KT P6SM BKN045
     FM280000 33010KT P6SM SCT045 BKN100=



000
FTUS41 KPHI 271314 AAA
TAFTTN
TAF AMD
KTTN 271314Z 2713/2812 34010KT P6SM SCT015 BKN080
     FM271400 34008G16KT P6SM BKN045
     FM280000 35010KT P6SM SCT045 BKN100=



000
FTUS41 KPHI 271313 AAA
TAFRDG
TAF AMD
KRDG 271313Z 2713/2812 33006KT P6SM SCT025 BKN080
     FM271400 32008G16KT P6SM BKN045
     FM280000 33010KT P6SM SCT045 BKN100=



000
FTUS41 KPHI 271313 AAA
TAFRDG
TAF AMD
KRDG 271313Z 2713/2812 33006KT P6SM SCT025 BKN080
     FM271400 32008G16KT P6SM BKN045
     FM280000 33010KT P6SM SCT045 BKN100=



000
FTUS41 KPHI 271312 AAA
TAFPHL
TAF AMD
KPHL 271312Z 2713/2818 35010KT P6SM SCT015 OVC100
     FM271400 33010G18KT P6SM BKN045
     FM280000 34012KT P6SM SCT045 BKN100
     FM281300 32010G20KT P6SM BKN045=



000
FTUS41 KPHI 271312 AAA
TAFPHL
TAF AMD
KPHL 271312Z 2713/2818 35010KT P6SM SCT015 OVC100
     FM271400 33010G18KT P6SM BKN045
     FM280000 34012KT P6SM SCT045 BKN100
     FM281300 32010G20KT P6SM BKN045=



000
FTUS41 KPHI 271125
TAFMIV
TAF
KMIV 271125Z 2712/2812 34010G18KT P6SM -RA BKN012 OVC060
      TEMPO 2712/2715 4SM -RA BR SCT012 OVC060
     FM271500 33008G16KT P6SM -RA SCT025 OVC050
      TEMPO 2715/2719 OVC025
     FM271900 33008G16KT P6SM -SHRA BKN040
     FM280000 34008KT P6SM SCT045 BKN100=



000
FTUS41 KPHI 271125
TAFTTN
TAF
KTTN 271125Z 2712/2812 34010KT P6SM SCT015 BKN080
      TEMPO 2712/2714 -RA OVC015
     FM271400 34008G16KT P6SM BKN045
     FM280000 35010KT P6SM SCT045 BKN100=



000
FTUS41 KPHI 271125
TAFPNE
TAF
KPNE 271125Z 2712/2812 34010KT P6SM SCT015 BKN080
      TEMPO 2712/2714 -RA OVC015
     FM271400 33010G18KT P6SM BKN045
     FM280000 34010KT P6SM SCT045 BKN100=



000
FTUS41 KPHI 271125
TAFRDG
TAF
KRDG 271125Z 2712/2812 33006KT P6SM SCT025 BKN080
      TEMPO 2712/2714 BKN025 OVC080
     FM271400 32008G16KT P6SM BKN045
     FM280000 33010KT P6SM SCT045 BKN100=



000
FTUS41 KPHI 271125
TAFACY
TAF
KACY 271125Z 2712/2812 34010G18KT P6SM -RA BKN012 OVC060
      TEMPO 2712/2715 4SM -RA BR SCT012 OVC060
     FM271500 34010G18KT P6SM -RA SCT025 OVC050
      TEMPO 2715/2719 OVC025
     FM271900 33010G18KT P6SM -SHRA BKN040
     FM280000 34010KT P6SM SCT045 BKN100=



000
FTUS41 KPHI 271125
TAFILG
TAF
KILG 271125Z 2712/2812 34010KT P6SM SCT015 BKN080
      TEMPO 2712/2714 -RA OVC015
     FM271400 33010G18KT P6SM BKN045
     FM280000 34010KT P6SM SCT045 BKN100=



000
FTUS41 KPHI 271125
TAFABE
TAF
KABE 271125Z 2712/2812 33006KT P6SM SCT025 BKN080
      TEMPO 2712/2714 BKN025 OVC080
     FM271400 32008G16KT P6SM BKN045
     FM280000 33010KT P6SM SCT045 BKN100=



000
FTUS41 KPHI 271125
TAFPHL
TAF
KPHL 271125Z 2712/2818 35010KT P6SM SCT015 BKN080
      TEMPO 2712/2714 -RA OVC015
     FM271400 33010G18KT P6SM BKN045
     FM280000 34012KT P6SM SCT045 BKN100
     FM281300 32010G20KT P6SM BKN045=



000
FTUS41 KPHI 271013 AAB
TAFTTN
TAF AMD
KTTN 271013Z 2710/2806 33008KT P6SM BKN010 OVC080
      TEMPO 2710/2712 4SM -RA BR SCT010 OVC080
     FM271200 34008KT P6SM SCT015 BKN080
      TEMPO 2712/2714 -RA OVC015
     FM271400 34008G16KT P6SM BKN045
     FM280000 35008KT P6SM SCT045 BKN100=



000
FTUS41 KPHI 271013 AAB
TAFTTN
TAF AMD
KTTN 271013Z 2710/2806 33008KT P6SM BKN010 OVC080
      TEMPO 2710/2712 4SM -RA BR SCT010 OVC080
     FM271200 34008KT P6SM SCT015 BKN080
      TEMPO 2712/2714 -RA OVC015
     FM271400 34008G16KT P6SM BKN045
     FM280000 35008KT P6SM SCT045 BKN100=



000
FTUS41 KPHI 270907 AAA
TAFACY
TAF AMD
KACY 270907Z 2709/2806 32010G18KT P6SM BKN010 OVC060
      TEMPO 2709/2712 4SM -RA BR SCT010 OVC060
     FM271200 34010KT P6SM -RA SCT020 BKN060
      TEMPO 2712/2714 4SM -RA BR OVC020
     FM271400 34010G18KT P6SM -SHRA OVC035
     FM271800 33010G18KT P6SM BKN045
     FM280000 34008KT P6SM SCT045 BKN100=



000
FTUS41 KPHI 270907 AAA
TAFMIV
TAF AMD
KMIV 270907Z 2709/2806 33008G16KT P6SM BKN012 OVC060
      TEMPO 2709/2712 4SM -RA BR SCT012 OVC060
     FM271200 34008KT P6SM -RA SCT020 BKN060
      TEMPO 2712/2714 4SM -RA BR OVC020
     FM271400 33008G16KT P6SM -SHRA OVC035
     FM271800 33008G16KT P6SM BKN045
     FM280000 34006KT P6SM SCT045 BKN100=



000
FTUS41 KPHI 270907 AAA
TAFACY
TAF AMD
KACY 270907Z 2709/2806 32010G18KT P6SM BKN010 OVC060
      TEMPO 2709/2712 4SM -RA BR SCT010 OVC060
     FM271200 34010KT P6SM -RA SCT020 BKN060
      TEMPO 2712/2714 4SM -RA BR OVC020
     FM271400 34010G18KT P6SM -SHRA OVC035
     FM271800 33010G18KT P6SM BKN045
     FM280000 34008KT P6SM SCT045 BKN100=



000
FTUS41 KPHI 270907 AAA
TAFMIV
TAF AMD
KMIV 270907Z 2709/2806 33008G16KT P6SM BKN012 OVC060
      TEMPO 2709/2712 4SM -RA BR SCT012 OVC060
     FM271200 34008KT P6SM -RA SCT020 BKN060
      TEMPO 2712/2714 4SM -RA BR OVC020
     FM271400 33008G16KT P6SM -SHRA OVC035
     FM271800 33008G16KT P6SM BKN045
     FM280000 34006KT P6SM SCT045 BKN100=



000
FTUS41 KPHI 270904 AAA
TAFRDG
TAF AMD
KRDG 270904Z 2709/2806 33008KT P6SM SCT025 OVC080
      TEMPO 2709/2711 -RA OVC025
     FM271100 33006KT P6SM SCT025 BKN080
      TEMPO 2711/2713 BKN025 OVC080
     FM271400 32008G16KT P6SM BKN045
     FM280000 33008KT P6SM SCT045 BKN100=



000
FTUS41 KPHI 270904 AAA
TAFABE
TAF AMD
KABE 270904Z 2709/2806 32008KT P6SM SCT025 OVC080
      TEMPO 2709/2711 -RA OVC025
     FM271100 33006KT P6SM SCT025 BKN080
      TEMPO 2711/2713 BKN025 OVC080
     FM271400 32008G16KT P6SM BKN045
     FM280000 33008KT P6SM SCT045 BKN100=



000
FTUS41 KPHI 270904 AAA
TAFABE
TAF AMD
KABE 270904Z 2709/2806 32008KT P6SM SCT025 OVC080
      TEMPO 2709/2711 -RA OVC025
     FM271100 33006KT P6SM SCT025 BKN080
      TEMPO 2711/2713 BKN025 OVC080
     FM271400 32008G16KT P6SM BKN045
     FM280000 33008KT P6SM SCT045 BKN100=



000
FTUS41 KPHI 270901 AAA
TAFTTN
TAF AMD
KTTN 270901Z 2709/2806 33008KT P6SM SCT015 OVC080
      TEMPO 2709/2711 4SM -RA BR OVC015
     FM271100 34008KT P6SM SCT025 BKN080
      TEMPO 2711/2714 -RA OVC025
     FM271400 34008G16KT P6SM BKN045
     FM280000 35008KT P6SM SCT045 BKN100=



000
FTUS41 KPHI 270901 AAA
TAFPNE
TAF AMD
KPNE 270901Z 2709/2806 33010G18KT P6SM SCT015 OVC080
      TEMPO 2709/2711 4SM -RA BR OVC015
     FM271100 34010KT P6SM SCT025 BKN080
      TEMPO 2711/2714 -RA OVC025
     FM271400 33010G18KT P6SM BKN045
     FM280000 34008KT P6SM SCT045 BKN100=



000
FTUS41 KPHI 270900 AAA
TAFILG
TAF AMD
KILG 270900Z 2709/2806 33010G18KT P6SM SCT015 OVC080
      TEMPO 2709/2711 4SM -RA BR OVC015
     FM271100 34010KT P6SM SCT025 BKN080
      TEMPO 2711/2714 -RA OVC025
     FM271400 33010G18KT P6SM BKN045
     FM280000 34008KT P6SM SCT045 BKN100=



000
FTUS41 KPHI 270900 AAA
TAFPHL
TAF AMD
KPHL 270900Z 2709/2812 33010G18KT P6SM SCT015 OVC080
      TEMPO 2709/2711 4SM -RA BR OVC015
     FM271100 35010KT P6SM SCT025 BKN080
      TEMPO 2711/2714 -RA OVC025
     FM271400 33010G18KT P6SM BKN045
     FM280000 34010KT P6SM SCT045 BKN100=



000
FTUS41 KPHI 270900 AAA
TAFILG
TAF AMD
KILG 270900Z 2709/2806 33010G18KT P6SM SCT015 OVC080
      TEMPO 2709/2711 4SM -RA BR OVC015
     FM271100 34010KT P6SM SCT025 BKN080
      TEMPO 2711/2714 -RA OVC025
     FM271400 33010G18KT P6SM BKN045
     FM280000 34008KT P6SM SCT045 BKN100=



000
FTUS41 KPHI 270900 AAA
TAFPHL
TAF AMD
KPHL 270900Z 2709/2812 33010G18KT P6SM SCT015 OVC080
      TEMPO 2709/2711 4SM -RA BR OVC015
     FM271100 35010KT P6SM SCT025 BKN080
      TEMPO 2711/2714 -RA OVC025
     FM271400 33010G18KT P6SM BKN045
     FM280000 34010KT P6SM SCT045 BKN100=



    US Dept of Commerce
    National Oceanic and Atmospheric Administration
    National Weather Service
    1325 East West Highway
    Silver Spring, MD 20910
    Page Author: NWS Internet Services Team
Disclaimer
Information Quality
Credits
Glossary
Privacy Policy
Freedom of Information Act (FOIA)
About Us
Career Opportunities